Time;durP1;ratioP1;P1;durP2;ratioP2;P2;SDS_P1;SDS_P2;PMS_P1;PMS_P2;Temp;Humidity;BMP_temperature;BMP_pressure;BME280_temperature;BME280_humidity;BME280_pressure;Samples;Min_cycle;Max_cycle;Signal;HPM_P1;HPM_P2
2023/03/02 00:00:09;;;;;;;77.07;56.63;;;;;;;4.12;100.00;101906.25;5061816;28;20048;-79
2023/03/02 00:02:38;;;;;;;76.25;60.88;;;;;;;4.06;100.00;101901.53;5061490;28;20057;-79
2023/03/02 00:05:09;;;;;;;74.30;59.88;;;;;;;4.17;100.00;101905.84;5061432;28;20053;-79
2023/03/02 00:07:37;;;;;;;69.65;57.90;;;;;;;4.17;100.00;101903.22;5060236;28;20497;-79
2023/03/02 00:10:05;;;;;;;76.50;62.85;;;;;;;4.10;100.00;101896.84;5061935;28;20071;-79
2023/03/02 00:12:33;;;;;;;67.53;55.05;;;;;;;4.15;100.00;101896.44;5061160;28;20540;-79
2023/03/02 00:15:00;;;;;;;77.28;62.38;;;;;;;4.03;100.00;101896.56;5061719;28;20057;-79
2023/03/02 00:17:27;;;;;;;63.00;47.13;;;;;;;4.09;100.00;101896.00;5060682;28;20045;-79
2023/03/02 00:19:54;;;;;;;64.15;46.13;;;;;;;4.03;100.00;101886.03;5061510;28;20075;-79
2023/03/02 00:22:22;;;;;;;65.35;51.58;;;;;;;4.04;100.00;101885.06;5061352;28;20075;-79
2023/03/02 00:24:49;;;;;;;68.20;52.15;;;;;;;4.06;100.00;101885.78;5061198;28;20045;-79
2023/03/02 00:27:15;;;;;;;62.55;47.90;;;;;;;4.04;100.00;101882.44;5061738;28;20048;-79
2023/03/02 00:29:42;;;;;;;65.22;49.97;;;;;;;3.99;100.00;101881.16;5061108;28;20498;-79
2023/03/02 00:32:13;;;;;;;87.70;72.18;;;;;;;4.05;100.00;101880.63;5061046;28;20079;-79
2023/03/02 00:34:40;;;;;;;65.53;57.40;;;;;;;3.99;100.00;101879.38;5061577;28;20053;-79
2023/03/02 00:37:07;;;;;;;69.72;50.92;;;;;;;4.11;100.00;101880.09;5061003;28;20127;-79
2023/03/02 00:39:35;;;;;;;66.90;49.67;;;;;;;4.04;100.00;101879.81;5061122;28;20053;-79
2023/03/02 00:42:01;;;;;;;64.78;51.70;;;;;;;4.04;100.00;101878.97;5060747;28;20052;-79
2023/03/02 00:44:28;;;;;;;64.15;54.50;;;;;;;4.11;100.00;101873.06;5060634;28;20411;-79
2023/03/02 00:46:55;;;;;;;65.55;50.63;;;;;;;4.05;100.00;101872.75;5060412;28;20091;-79
2023/03/02 00:49:22;;;;;;;71.25;52.03;;;;;;;4.06;100.00;101871.78;5060663;28;20049;-79
2023/03/02 00:51:48;;;;;;;69.35;50.60;;;;;;;4.02;100.00;101873.00;5060815;28;20099;-79
2023/03/02 00:54:15;;;;;;;69.32;59.47;;;;;;;4.06;100.00;101867.38;5060913;28;20049;-79
2023/03/02 00:56:43;;;;;;;85.78;77.15;;;;;;;4.05;100.00;101873.56;5060852;28;20045;-79
2023/03/02 00:59:25;;;;;;;67.32;54.03;;;;;;;4.00;100.00;101860.00;5061026;28;20052;-79
2023/03/02 01:01:56;;;;;;;58.22;46.88;;;;;;;4.06;100.00;101856.03;5059589;28;20045;-79
2023/03/02 01:04:23;;;;;;;60.73;48.67;;;;;;;3.99;100.00;101854.88;5060483;28;20053;-79
2023/03/02 01:06:50;;;;;;;65.95;53.83;;;;;;;3.97;100.00;101851.56;5060521;28;20330;-79
2023/03/02 01:09:17;;;;;;;69.38;57.97;;;;;;;3.95;100.00;101853.50;5059811;28;20049;-79
2023/03/02 01:11:45;;;;;;;58.65;50.95;;;;;;;3.85;100.00;101850.84;5060021;28;20107;-79
2023/03/02 01:14:11;;;;;;;72.43;64.50;;;;;;;3.87;100.00;101852.38;5060161;28;20045;-79
2023/03/02 01:16:38;;;;;;;66.38;52.72;;;;;;;3.77;100.00;101842.78;5060581;28;20052;-79
2023/03/02 01:19:05;;;;;;;77.32;67.90;;;;;;;3.76;100.00;101841.13;5059911;28;20041;-79
2023/03/02 01:21:31;;;;;;;70.70;60.33;;;;;;;3.89;100.00;101841.72;5062591;28;20103;-79
2023/03/02 01:23:58;;;;;;;65.47;50.15;;;;;;;3.81;100.00;101845.03;5064595;28;20048;-79
2023/03/02 01:26:25;;;;;;;57.88;47.70;;;;;;;3.87;100.00;101839.25;5064010;28;20049;-79
2023/03/02 01:28:54;;;;;;;61.78;46.13;;;;;;;3.90;100.00;101846.00;5064628;28;20053;-79
2023/03/02 01:31:21;;;;;;;64.57;52.17;;;;;;;3.89;100.00;101842.53;5064027;28;20045;-79
2023/03/02 01:33:48;;;;;;;65.65;50.70;;;;;;;3.93;100.00;101850.16;5064669;28;20049;-79
2023/03/02 01:36:16;;;;;;;65.95;55.00;;;;;;;3.95;100.00;101841.19;5064167;28;20049;-79
2023/03/02 01:38:43;;;;;;;66.97;53.63;;;;;;;3.84;100.00;101842.13;5064241;28;20107;-79
2023/03/02 01:41:10;;;;;;;58.90;44.45;;;;;;;4.44;100.00;101846.50;5064673;28;20053;-79
2023/03/02 01:43:37;;;;;;;66.93;53.80;;;;;;;4.05;100.00;101835.94;5064713;28;20395;-79
2023/03/02 01:46:10;;;;;;;76.38;68.28;;;;;;;3.82;100.00;101844.06;5064112;28;20061;-79
2023/03/02 01:48:42;;;;;;;67.70;54.38;;;;;;;3.81;100.00;101833.66;5064791;28;20052;-79
2023/03/02 01:51:16;;;;;;;63.28;49.75;;;;;;;3.81;100.00;101839.78;5064202;28;20049;-79
2023/03/02 01:53:45;;;;;;;67.78;54.50;;;;;;;3.68;100.00;101834.75;5063945;28;20083;-79
2023/03/02 01:56:15;;;;;;;71.00;63.45;;;;;;;3.68;100.00;101839.16;5063418;28;20421;-79
2023/03/02 01:58:42;;;;;;;70.10;60.45;;;;;;;3.74;100.00;101848.31;5063923;28;20079;-79
2023/03/02 02:01:14;;;;;;;69.78;62.17;;;;;;;3.57;100.00;101845.38;5063649;28;20591;-79
2023/03/02 02:03:42;;;;;;;67.82;58.15;;;;;;;3.64;100.00;101838.59;5063536;28;20057;-79
2023/03/02 02:06:16;;;;;;;72.43;62.67;;;;;;;3.72;100.00;101847.59;5063749;28;20052;-79
2023/03/02 02:08:44;;;;;;;77.68;69.28;;;;;;;3.69;100.00;101835.56;5063313;28;20049;-79
2023/03/02 02:11:11;;;;;;;74.50;65.32;;;;;;;3.73;100.00;101836.16;5063761;28;20049;-79
2023/03/02 02:13:38;;;;;;;72.25;62.65;;;;;;;3.60;100.00;101831.09;5063989;28;20107;-79
2023/03/02 02:16:06;;;;;;;75.85;63.80;;;;;;;3.66;100.00;101833.19;5063274;28;20049;-79
2023/03/02 02:18:37;;;;;;;82.25;72.60;;;;;;;3.68;100.00;101829.47;5063457;28;20488;-79
2023/03/02 02:21:04;;;;;;;77.40;67.38;;;;;;;3.61;100.00;101835.41;5063773;28;20512;-79
2023/03/02 02:23:39;;;;;;;78.72;70.20;;;;;;;3.59;100.00;101826.81;5063114;28;20139;-79
2023/03/02 02:26:19;;;;;;;86.78;77.75;;;;;;;3.62;100.00;101840.53;5063395;28;20524;-79
2023/03/02 02:28:56;;;;;;;86.60;76.43;;;;;;;3.59;100.00;101835.53;5063718;28;20049;-79
2023/03/02 02:31:30;;;;;;;80.47;69.00;;;;;;;3.71;100.00;101838.06;5062611;28;20049;-79
2023/03/02 02:34:03;;;;;;;76.03;57.65;;;;;;;3.66;100.00;101827.94;5062819;28;20502;-79
2023/03/02 02:36:34;;;;;;;73.20;62.75;;;;;;;3.61;100.00;101838.88;5062853;28;20052;-79
2023/03/02 02:39:04;;;;;;;74.87;53.60;;;;;;;3.59;100.00;101837.34;5063402;28;20057;-79
2023/03/02 02:41:37;;;;;;;71.22;47.75;;;;;;;3.60;100.00;101837.22;5062778;28;20090;-79
2023/03/02 02:44:05;;;;;;;79.72;53.55;;;;;;;3.57;100.00;101840.13;5062776;28;20403;-79
2023/03/02 02:46:33;;;;;;;72.85;57.65;;;;;;;3.62;100.00;101842.31;5062626;28;20476;-79
2023/03/02 02:49:02;;;;;;;88.50;70.45;;;;;;;3.51;100.00;101837.16;5062643;28;20575;-79
2023/03/02 02:51:29;;;;;;;83.25;71.00;;;;;;;3.41;100.00;101837.13;5062809;28;20053;-79
2023/03/02 02:53:58;;;;;;;73.75;54.70;;;;;;;3.48;100.00;101842.69;5062936;28;20108;-79
2023/03/02 02:56:28;;;;;;;79.72;60.50;;;;;;;3.53;100.00;101832.63;5063406;28;20059;-79
2023/03/02 02:59:00;;;;;;;87.05;77.53;;;;;;;3.49;100.00;101836.47;5062943;28;20056;-79
2023/03/02 03:01:27;;;;;;;76.45;55.70;;;;;;;3.41;100.00;101837.94;5062928;28;20057;-79
2023/03/02 03:03:56;;;;;;;79.90;53.97;;;;;;;3.49;100.00;101841.72;5063101;28;20106;-79
2023/03/02 03:06:25;;;;;;;78.07;58.63;;;;;;;3.44;100.00;101842.94;5063113;28;20095;-79
2023/03/02 03:08:58;;;;;;;86.53;68.22;;;;;;;3.36;100.00;101837.53;5062596;28;20099;-79
2023/03/02 03:11:28;;;;;;;79.65;58.08;;;;;;;3.44;100.00;101845.56;5062014;28;20045;-79
2023/03/02 03:14:08;;;;;;;76.97;55.75;;;;;;;3.42;100.00;101849.31;5062288;28;20077;-79
2023/03/02 03:16:36;;;;;;;74.68;54.90;;;;;;;3.39;100.00;101847.78;5062936;28;20052;-79
2023/03/02 03:19:13;;;;;;;74.13;58.83;;;;;;;3.33;100.00;101850.06;5062324;28;20114;-79
2023/03/02 03:21:39;;;;;;;77.10;62.08;;;;;;;3.31;100.00;101844.13;5062488;28;20048;-79
2023/03/02 03:24:07;;;;;;;87.75;55.03;;;;;;;3.30;100.00;101853.81;5061842;28;20076;-79
2023/03/02 03:26:34;;;;;;;80.05;54.50;;;;;;;3.22;100.00;101854.44;5061617;28;20572;-79
2023/03/02 03:29:01;;;;;;;77.88;54.80;;;;;;;3.18;100.00;101857.47;5062490;28;20057;-79
2023/03/02 03:31:29;;;;;;;77.35;56.13;;;;;;;3.26;100.00;101856.81;5061946;28;20084;-79
2023/03/02 03:33:59;;;;;;;78.03;55.35;;;;;;;3.25;100.00;101857.78;5062113;28;20048;-79
2023/03/02 03:36:26;;;;;;;72.78;52.85;;;;;;;3.24;100.00;101856.09;5062037;28;20057;-79
2023/03/02 03:38:53;;;;;;;81.38;54.03;;;;;;;3.21;100.00;101858.06;5062099;28;20512;-79
2023/03/02 03:41:20;;;;;;;68.80;49.17;;;;;;;3.24;100.00;101862.22;5061762;28;20540;-79
2023/03/02 03:43:47;;;;;;;71.47;45.72;;;;;;;3.02;100.00;101865.78;5061453;28;20102;-79
2023/03/02 03:46:14;;;;;;;70.88;45.20;;;;;;;2.91;100.00;101865.88;5062181;28;20136;-79
2023/03/02 03:48:42;;;;;;;72.53;46.97;;;;;;;3.06;100.00;101867.22;5061832;28;20075;-79
2023/03/02 03:51:09;;;;;;;69.95;49.50;;;;;;;2.90;100.00;101865.03;5061309;28;20041;-79
2023/03/02 03:53:36;;;;;;;71.68;44.88;;;;;;;2.85;100.00;101867.22;5061543;28;20099;-79
2023/03/02 03:56:02;;;;;;;74.05;46.15;;;;;;;2.76;100.00;101875.84;5061130;28;20502;-79
2023/03/02 03:58:30;;;;;;;73.38;46.63;;;;;;;2.84;100.00;101875.19;5048972;28;20045;-79
2023/03/02 04:01:00;;;;;;;78.25;52.78;;;;;;;2.66;100.00;101867.06;5041202;28;20057;-79
2023/03/02 04:03:28;;;;;;;81.10;52.90;;;;;;;2.73;100.00;101873.47;5040705;28;20053;-79
2023/03/02 04:05:56;;;;;;;80.50;52.45;;;;;;;2.59;100.00;101868.53;5040826;28;20050;-79
2023/03/02 04:08:23;;;;;;;93.93;55.22;;;;;;;2.51;100.00;101871.75;5041146;28;20115;-79
2023/03/02 04:10:49;;;;;;;90.13;56.08;;;;;;;2.45;100.00;101872.25;5040809;28;20049;-79
2023/03/02 04:13:16;;;;;;;88.15;57.35;;;;;;;2.32;100.00;101879.47;5040775;28;20111;-79
2023/03/02 04:15:43;;;;;;;89.75;58.55;;;;;;;2.36;100.00;101865.13;5040588;28;20053;-79
2023/03/02 04:18:09;;;;;;;92.65;58.00;;;;;;;2.37;100.00;101877.31;5041705;28;20107;-79
2023/03/02 04:20:36;;;;;;;93.10;62.97;;;;;;;2.36;100.00;101879.09;5041088;28;20400;-79
2023/03/02 04:23:04;;;;;;;88.10;57.72;;;;;;;2.50;100.00;101875.34;5041330;28;20072;-79
2023/03/02 04:25:31;;;;;;;88.03;54.88;;;;;;;2.24;100.00;101880.94;5040845;28;20115;-79
2023/03/02 04:27:58;;;;;;;92.22;62.58;;;;;;;2.13;100.00;101877.50;5041267;28;20109;-79
2023/03/02 04:30:27;;;;;;;91.90;61.38;;;;;;;2.36;100.00;101880.88;5040638;28;20050;-79
2023/03/02 04:32:56;;;;;;;95.50;62.05;;;;;;;1.99;100.00;101882.03;5040383;28;20053;-79
2023/03/02 04:35:24;;;;;;;96.25;59.10;;;;;;;1.90;100.00;101879.31;5040941;28;20113;-79
2023/03/02 04:37:51;;;;;;;94.00;60.00;;;;;;;1.86;100.00;101883.13;5041160;28;20498;-79
2023/03/02 04:40:19;;;;;;;89.75;59.85;;;;;;;1.96;100.00;101881.44;5040736;28;20049;-79
2023/03/02 04:42:46;;;;;;;98.25;68.82;;;;;;;1.75;100.00;101882.16;5040672;28;20045;-79
2023/03/02 04:45:13;;;;;;;91.20;69.20;;;;;;;1.80;100.00;101889.69;5041170;28;20049;-79
2023/03/02 04:47:41;;;;;;;97.20;62.92;;;;;;;1.88;100.00;101889.09;5040633;28;20503;-79
2023/03/02 04:50:09;;;;;;;99.40;64.85;;;;;;;1.81;100.00;101884.31;5040593;28;20404;-79
2023/03/02 04:52:38;;;;;;;99.97;64.70;;;;;;;1.81;100.00;101886.09;5040622;28;20046;-79
2023/03/02 04:55:06;;;;;;;101.20;64.97;;;;;;;2.17;100.00;101889.38;5040260;28;20109;-79
2023/03/02 04:57:34;;;;;;;93.60;55.58;;;;;;;1.93;100.00;101882.50;5040114;28;20113;-79
2023/03/02 05:00:02;;;;;;;93.47;53.47;;;;;;;2.07;100.00;101881.44;5047403;28;20114;-79
2023/03/02 05:02:29;;;;;;;95.00;59.47;;;;;;;1.83;100.00;101881.56;5058062;28;20128;-79
2023/03/02 05:04:55;;;;;;;91.00;60.90;;;;;;;1.99;100.00;101879.41;5059430;28;20110;-79
2023/03/02 05:07:22;;;;;;;99.45;64.93;;;;;;;1.77;100.00;101876.81;5060416;28;20053;-79
2023/03/02 05:09:49;;;;;;;89.13;58.05;;;;;;;1.83;100.00;101876.34;5059454;28;20477;-79
2023/03/02 05:12:17;;;;;;;91.13;55.30;;;;;;;1.89;100.00;101877.66;5060097;28;20079;-79
2023/03/02 05:14:46;;;;;;;98.80;63.33;;;;;;;1.73;100.00;101884.09;5059874;28;20045;-79
2023/03/02 05:17:13;;;;;;;100.43;63.88;;;;;;;1.67;100.00;101886.34;5060369;28;20060;-79
2023/03/02 05:19:39;;;;;;;95.72;59.70;;;;;;;1.62;100.00;101889.31;5061570;28;20576;-79
2023/03/02 05:22:06;;;;;;;104.55;65.28;;;;;;;1.56;100.00;101895.88;5060805;28;20067;-79
2023/03/02 05:24:34;;;;;;;93.82;55.97;;;;;;;1.73;100.00;101899.81;5061249;28;20080;-79
2023/03/02 05:27:01;;;;;;;96.85;62.03;;;;;;;1.75;100.00;101897.88;5059338;28;20068;-79
2023/03/02 05:29:27;;;;;;;94.90;62.42;;;;;;;1.74;100.00;101898.00;5060748;28;20110;-79
2023/03/02 05:31:55;;;;;;;92.35;59.90;;;;;;;1.66;100.00;101893.34;5061112;28;20053;-79
2023/03/02 05:34:22;;;;;;;92.85;58.83;;;;;;;1.61;100.00;101895.53;5060474;28;20465;-79
2023/03/02 05:36:49;;;;;;;98.53;59.85;;;;;;;1.56;100.00;101887.19;5060655;28;20048;-79
2023/03/02 05:39:16;;;;;;;93.25;57.08;;;;;;;1.57;100.00;101899.31;5060478;28;20478;-79
2023/03/02 05:41:43;;;;;;;93.90;56.50;;;;;;;1.88;100.00;101897.78;5060569;28;20053;-79
2023/03/02 05:44:11;;;;;;;93.55;52.92;;;;;;;1.65;100.00;101896.13;5056002;28;20045;-77
2023/03/02 05:46:38;;;;;;;98.85;63.30;;;;;;;1.36;100.00;101893.94;5051783;28;20430;-77
2023/03/02 05:49:06;;;;;;;95.82;60.17;;;;;;;1.36;100.00;101892.19;5051562;28;20049;-77
2023/03/02 05:51:33;;;;;;;100.25;59.28;;;;;;;1.39;100.00;101898.94;5051443;28;20045;-77
2023/03/02 05:54:00;;;;;;;96.97;60.13;;;;;;;1.36;100.00;101888.69;5051799;28;20049;-77
2023/03/02 05:56:26;;;;;;;120.82;65.85;;;;;;;1.31;100.00;101896.09;5051900;28;20049;-76
2023/03/02 05:58:53;;;;;;;109.63;63.42;;;;;;;1.68;100.00;101904.56;5051444;28;20480;-77
2023/03/02 06:01:20;;;;;;;106.40;63.33;;;;;;;1.40;100.00;101905.03;5051339;28;20468;-77
2023/03/02 06:03:47;;;;;;;109.07;66.82;;;;;;;1.55;100.00;101902.06;5051452;28;20057;-77
2023/03/02 06:06:15;;;;;;;99.63;59.17;;;;;;;1.61;100.00;101903.38;5052384;28;20103;-77
2023/03/02 06:08:42;;;;;;;96.88;57.17;;;;;;;1.52;100.00;101911.94;5055130;28;20045;-77
2023/03/02 06:11:10;;;;;;;98.32;59.00;;;;;;;1.60;100.00;101906.94;5054877;28;20041;-77
2023/03/02 06:13:37;;;;;;;105.75;60.97;;;;;;;1.59;100.00;101918.38;5054966;28;20045;-77
2023/03/02 06:16:04;;;;;;;95.53;59.13;;;;;;;1.57;100.00;101913.25;5055128;28;20049;-77
2023/03/02 06:18:31;;;;;;;93.53;55.28;;;;;;;1.74;100.00;101922.41;5055219;28;20481;-77
2023/03/02 06:20:58;;;;;;;104.00;63.58;;;;;;;1.76;100.00;101927.56;5055151;28;20053;-77
2023/03/02 06:23:27;;;;;;;92.55;59.15;;;;;;;1.80;100.00;101929.81;5054985;28;20049;-77
2023/03/02 06:25:53;;;;;;;94.38;56.67;;;;;;;1.83;100.00;101926.13;5055003;28;20057;-76
2023/03/02 06:28:20;;;;;;;95.63;60.53;;;;;;;1.89;100.00;101925.63;5054797;28;20514;-77
2023/03/02 06:30:48;;;;;;;98.10;61.90;;;;;;;1.77;100.00;101934.44;5054552;28;20071;-77
2023/03/02 06:33:16;;;;;;;91.55;54.88;;;;;;;1.82;100.00;101935.75;5063745;28;20045;-79
2023/03/02 06:35:43;;;;;;;89.60;56.08;;;;;;;1.82;100.00;101937.56;5064222;28;20079;-79
2023/03/02 06:38:10;;;;;;;97.30;56.35;;;;;;;2.03;100.00;101945.53;5063301;28;20060;-79
2023/03/02 06:40:38;;;;;;;98.82;59.25;;;;;;;1.96;100.00;101946.94;5062637;28;20044;-79
2023/03/02 06:43:05;;;;;;;92.07;55.10;;;;;;;2.18;100.00;101943.47;5063518;28;20045;-79
2023/03/02 06:45:33;;;;;;;90.22;55.83;;;;;;;2.22;100.00;101943.13;5062615;28;20048;-79
2023/03/02 06:48:01;;;;;;;91.35;58.42;;;;;;;2.02;100.00;101949.09;5062459;28;20526;-79
2023/03/02 06:50:28;;;;;;;86.22;53.88;;;;;;;2.12;100.00;101939.56;5062831;28;20075;-79
2023/03/02 06:52:55;;;;;;;90.18;57.05;;;;;;;2.17;100.00;101944.44;5062741;28;20045;-79
2023/03/02 06:55:22;;;;;;;96.40;59.58;;;;;;;2.25;100.00;101948.13;5062451;28;20053;-79
2023/03/02 06:57:50;;;;;;;91.38;57.72;;;;;;;2.92;100.00;101943.66;5062920;28;20048;-79
2023/03/02 07:00:23;;;;;;;84.90;54.65;;;;;;;2.79;100.00;101956.94;5062798;28;20045;-79
2023/03/02 07:02:51;;;;;;;92.35;56.22;;;;;;;2.50;100.00;101956.66;5061969;28;20064;-79
2023/03/02 07:05:18;;;;;;;87.13;56.75;;;;;;;2.58;100.00;101951.63;5061694;28;20110;-79
2023/03/02 07:07:44;;;;;;;79.50;55.33;;;;;;;2.28;100.00;101953.13;5061719;28;20075;-79
2023/03/02 07:10:12;;;;;;;83.22;52.00;;;;;;;2.39;100.00;101959.28;5062334;28;20102;-79
2023/03/02 07:12:39;;;;;;;91.30;61.45;;;;;;;2.29;100.00;101949.53;5062360;28;20484;-79
2023/03/02 07:15:10;;;;;;;93.82;57.78;;;;;;;2.41;100.00;101962.63;5062272;28;20102;-79
2023/03/02 07:17:37;;;;;;;93.50;58.42;;;;;;;2.43;100.00;101955.50;5062468;28;20064;-79
2023/03/02 07:20:05;;;;;;;89.70;56.58;;;;;;;2.56;100.00;101953.53;5061811;28;20049;-79
2023/03/02 07:22:32;;;;;;;92.00;59.75;;;;;;;2.43;100.00;101956.31;5061849;28;20052;-79
2023/03/02 07:24:59;;;;;;;89.75;60.53;;;;;;;2.33;100.00;101952.78;5061369;28;20041;-79
2023/03/02 07:27:25;;;;;;;95.05;59.45;;;;;;;2.39;100.00;101951.44;5062413;28;20052;-79
2023/03/02 07:29:52;;;;;;;95.20;60.05;;;;;;;2.27;100.00;101950.63;5062041;28;20079;-79
2023/03/02 07:32:20;;;;;;;91.32;58.72;;;;;;;2.33;100.00;101950.16;5061657;28;20071;-79
2023/03/02 07:34:47;;;;;;;99.35;63.15;;;;;;;2.32;100.00;101948.47;5061987;28;20053;-79
2023/03/02 07:37:13;;;;;;;105.68;65.03;;;;;;;2.31;100.00;101952.06;5061542;28;20419;-79
2023/03/02 07:39:40;;;;;;;109.55;67.32;;;;;;;2.28;100.00;101953.13;5062045;28;20049;-79
2023/03/02 07:42:07;;;;;;;104.20;62.35;;;;;;;2.47;100.00;101962.16;5061392;28;20084;-79
2023/03/02 07:44:34;;;;;;;93.22;62.30;;;;;;;2.27;100.00;101956.72;5061622;28;20457;-79
2023/03/02 07:47:01;;;;;;;92.07;61.47;;;;;;;2.15;100.00;101955.06;5061369;28;20472;-79
2023/03/02 07:49:29;;;;;;;97.28;60.15;;;;;;;2.20;100.00;101949.44;5061177;28;20052;-79
2023/03/02 07:51:56;;;;;;;87.97;58.33;;;;;;;2.43;100.00;101950.25;5060884;28;20071;-79
2023/03/02 07:54:25;;;;;;;93.40;57.70;;;;;;;2.51;100.00;101961.78;5060633;28;20049;-79
2023/03/02 07:56:52;;;;;;;88.18;54.58;;;;;;;2.60;100.00;101949.69;5060180;28;20490;-79
2023/03/02 07:59:18;;;;;;;85.65;57.05;;;;;;;2.53;100.00;101952.00;5061200;28;20045;-79
2023/03/02 08:01:45;;;;;;;93.47;59.92;;;;;;;2.53;100.00;101946.75;5060663;28;20484;-79
2023/03/02 08:04:12;;;;;;;92.40;59.72;;;;;;;2.50;100.00;101949.63;5060739;28;20103;-79
2023/03/02 08:06:40;;;;;;;92.40;61.03;;;;;;;2.52;100.00;101949.50;5060806;28;20045;-79
2023/03/02 08:09:07;;;;;;;92.90;58.78;;;;;;;2.33;100.00;101950.16;5060970;28;20122;-79
2023/03/02 08:11:33;;;;;;;93.15;59.58;;;;;;;2.59;100.00;101952.47;5060965;28;20049;-79
2023/03/02 08:14:00;;;;;;;86.95;54.83;;;;;;;2.84;100.00;101957.38;5056593;28;20079;-77
2023/03/02 08:16:27;;;;;;;90.47;59.15;;;;;;;2.79;100.00;101959.56;5052991;28;20110;-77
2023/03/02 08:18:55;;;;;;;92.25;57.95;;;;;;;2.81;100.00;101956.81;5052658;28;20064;-77
2023/03/02 08:21:25;;;;;;;80.63;53.08;;;;;;;2.68;100.00;101947.31;5052550;28;20529;-76
2023/03/02 08:23:53;;;;;;;87.78;55.65;;;;;;;2.52;100.00;101949.50;5060528;28;20053;-79
2023/03/02 08:26:20;;;;;;;92.10;57.65;;;;;;;2.44;100.00;101960.59;5059703;28;20049;-79
2023/03/02 08:28:47;;;;;;;89.82;54.67;;;;;;;2.73;100.00;101952.19;5059718;28;20494;-79
2023/03/02 08:31:14;;;;;;;89.50;57.65;;;;;;;2.50;100.00;101946.16;5060001;28;20099;-79
2023/03/02 08:33:41;;;;;;;91.75;53.38;;;;;;;3.01;100.00;101935.00;5060330;28;20476;-79
2023/03/02 08:36:11;;;;;;;88.07;54.15;;;;;;;2.73;100.00;101923.31;5060641;28;20107;-79
2023/03/02 08:38:38;;;;;;;83.35;50.70;;;;;;;3.03;100.00;101925.22;5060322;28;20083;-79
2023/03/02 08:41:10;;;;;;;84.10;55.75;;;;;;;2.98;100.00;101924.75;5059978;28;20106;-79
2023/03/02 08:43:37;;;;;;;85.47;54.60;;;;;;;3.00;100.00;101925.47;5060037;28;20045;-79
2023/03/02 08:46:04;;;;;;;74.78;47.85;;;;;;;3.60;100.00;101925.69;5059916;28;20564;-79
2023/03/02 08:48:31;;;;;;;80.75;50.72;;;;;;;4.05;100.00;101922.69;5060853;28;20053;-79
2023/03/02 08:51:01;;;;;;;77.63;55.33;;;;;;;3.00;100.00;101919.41;5061467;28;20491;-79
2023/03/02 08:53:30;;;;;;;76.57;52.70;;;;;;;2.91;100.00;101924.44;5059939;28;20049;-79
2023/03/02 08:55:57;;;;;;;73.15;49.92;;;;;;;3.12;100.00;101921.00;5060272;28;20057;-79
2023/03/02 08:58:25;;;;;;;80.15;53.92;;;;;;;3.33;100.00;101913.97;5060927;28;20468;-79
2023/03/02 09:00:52;;;;;;;76.13;52.47;;;;;;;3.03;100.00;101912.09;5059802;28;20045;-79
2023/03/02 09:03:19;;;;;;;75.20;55.95;;;;;;;4.28;100.00;101916.25;5060356;28;20053;-79
2023/03/02 09:05:46;;;;;;;85.22;58.33;;;;;;;3.40;100.00;101914.25;5060802;28;20476;-79
2023/03/02 09:08:12;;;;;;;83.25;60.30;;;;;;;3.27;100.00;101911.00;5060087;28;20509;-79
2023/03/02 09:10:39;;;;;;;94.03;60.00;;;;;;;3.11;100.00;101921.94;5059444;28;20067;-79
2023/03/02 09:13:07;;;;;;;88.47;57.78;;;;;;;3.34;100.00;101912.97;5059845;28;20075;-79
2023/03/02 09:15:35;;;;;;;90.45;61.22;;;;;;;3.14;100.00;101913.81;5059391;28;20104;-79
2023/03/02 09:18:01;;;;;;;79.53;56.33;;;;;;;3.86;100.00;101912.94;5059006;28;20052;-79
2023/03/02 09:20:28;;;;;;;91.63;59.05;;;;;;;3.31;100.00;101915.03;5060223;28;20045;-79
2023/03/02 09:22:55;;;;;;;80.55;56.47;;;;;;;3.32;100.00;101919.31;5060349;28;20107;-79
2023/03/02 09:25:22;;;;;;;80.82;57.72;;;;;;;3.58;100.00;101912.69;5059467;28;20466;-79
2023/03/02 09:27:48;;;;;;;92.80;62.80;;;;;;;3.51;100.00;101916.81;5059202;28;20045;-79
2023/03/02 09:30:16;;;;;;;95.45;56.97;;;;;;;3.37;100.00;101914.53;5059278;28;20053;-79
2023/03/02 09:32:44;;;;;;;86.88;54.97;;;;;;;3.19;100.00;101916.91;5058966;28;20462;-79
2023/03/02 09:35:11;;;;;;;89.60;58.92;;;;;;;3.47;100.00;101917.19;5059620;28;20049;-79
2023/03/02 09:37:40;;;;;;;87.75;56.95;;;;;;;3.14;100.00;101916.44;5059561;28;20465;-79
2023/03/02 09:40:16;;;;;;;87.28;55.30;;;;;;;3.39;100.00;101917.88;5058903;28;20498;-79
2023/03/02 09:43:14;;;;;;;89.72;57.58;;;;;;;2.97;100.00;101917.84;5063016;28;20052;-79
2023/03/02 09:46:01;;;;;;;95.78;61.65;;;;;;;3.33;100.00;101913.97;5059192;28;20049;-79
2023/03/02 09:48:40;;;;;;;100.75;64.53;;;;;;;3.54;100.00;101921.81;5063071;28;20049;-79
2023/03/02 09:51:19;;;;;;;81.53;56.92;;;;;;;3.29;100.00;101915.16;5063668;28;20079;-79
2023/03/02 09:53:51;;;;;;;91.18;57.75;;;;;;;3.31;100.00;101915.03;5062691;28;20059;-79
2023/03/02 09:56:19;;;;;;;93.50;57.65;;;;;;;3.24;100.00;101911.25;5063855;28;20418;-79
2023/03/02 09:58:52;;;;;;;87.70;58.08;;;;;;;3.23;100.00;101920.91;5063134;28;20515;-79
2023/03/02 10:01:30;;;;;;;87.55;54.85;;;;;;;3.75;100.00;101920.91;5062795;28;20044;-79
2023/03/02 10:04:08;;;;;;;90.20;57.33;;;;;;;4.12;100.00;101911.53;5062941;28;20041;-79
2023/03/02 10:06:35;;;;;;;85.88;52.58;;;;;;;4.06;100.00;101909.44;5064314;28;20049;-79
2023/03/02 10:09:02;;;;;;;74.47;47.38;;;;;;;4.70;100.00;101905.50;5064652;28;20049;-79
2023/03/02 10:11:39;;;;;;;87.53;55.53;;;;;;;3.83;100.00;101900.91;5064331;28;20053;-79
2023/03/02 10:14:13;;;;;;;88.65;56.10;;;;;;;3.68;100.00;101904.84;5062226;28;20056;-79
2023/03/02 10:16:47;;;;;;;80.13;55.55;;;;;;;4.37;100.00;101898.84;5062536;28;20498;-79
2023/03/02 10:19:23;;;;;;;85.07;54.35;;;;;;;3.91;100.00;101900.25;5062547;28;20049;-79
2023/03/02 10:21:57;;;;;;;88.45;55.03;;;;;;;3.71;100.00;101891.44;5062631;28;20056;-79
2023/03/02 10:24:29;;;;;;;88.32;55.80;;;;;;;4.17;100.00;101895.31;5062507;28;20106;-79
2023/03/02 10:26:59;;;;;;;;;;;;;;;4.15;100.00;101896.44;5063907;28;20053;-79
2023/03/02 10:29:45;;;;;;;88.30;55.17;;;;;;;4.47;100.00;101901.47;5062697;28;19925;-79
2023/03/02 10:32:19;;;;;;;77.20;50.65;;;;;;;5.13;100.00;101887.59;5062892;28;20041;-79
2023/03/02 10:34:48;;;;;;;79.18;50.72;;;;;;;4.74;100.00;101890.25;5063078;28;20048;-79
2023/03/02 10:37:17;;;;;;;79.13;55.58;;;;;;;4.73;100.00;101880.72;5063034;28;20246;-79
2023/03/02 10:39:44;;;;;;;76.43;51.05;;;;;;;5.45;100.00;101879.34;5064282;28;20496;-79
2023/03/02 10:42:16;;;;;;;73.38;49.25;;;;;;;5.49;100.00;101876.25;5064413;28;20049;-79
2023/03/02 10:44:47;;;;;;;70.38;48.17;;;;;;;5.53;100.00;101868.06;5064510;28;20127;-79
2023/03/02 10:47:23;;;;;;;76.15;54.13;;;;;;;5.55;100.00;101859.03;5063973;28;20079;-79
2023/03/02 10:49:52;;;;;;;73.85;54.47;;;;;;;5.56;100.00;101858.06;5063875;28;20434;-79
2023/03/02 10:52:20;;;;;;;74.50;50.10;;;;;;;5.33;100.00;101859.41;5062698;28;20049;-79
2023/03/02 10:54:47;;;;;;;69.47;49.63;;;;;;;4.96;100.00;101854.91;5063093;28;20045;-79
2023/03/02 10:57:30;;;;;;;73.10;52.25;;;;;;;5.16;100.00;101848.63;5062949;28;20110;-79
2023/03/02 11:00:01;;;;;;;74.20;52.42;;;;;;;5.42;100.00;101853.28;5064188;28;20084;-79
2023/03/02 11:02:28;;;;;;;88.13;60.00;;;;;;;5.53;100.00;101853.09;5063647;28;20053;-80
2023/03/02 11:04:58;;;;;;;76.03;55.65;;;;;;;5.42;100.00;101848.00;5063434;28;20075;-79
2023/03/02 11:07:26;;;;;;;75.18;56.70;;;;;;;5.53;100.00;101842.53;5064336;28;20102;-79
2023/03/02 11:10:00;;;;;;;80.97;59.92;;;;;;;5.32;100.00;101840.13;5063689;28;20560;-79
2023/03/02 11:12:28;;;;;;;71.70;54.58;;;;;;;5.82;100.00;101826.59;5063172;28;20617;-79
2023/03/02 11:15:29;;;;;;;69.45;54.05;;;;;;;6.48;100.00;101830.75;5064641;28;20045;-79